sensor_id;sensor_type;location;lat;lon;timestamp;P1;durP1;ratioP1;P2;durP2;ratioP2
60318;SDS011;46163;52.306;5.634;2024-02-21T00:01:39;5.35;;;2.72;;
60318;SDS011;46163;52.306;5.634;2024-02-21T00:04:04;9.40;;;3.20;;
60318;SDS011;46163;52.306;5.634;2024-02-21T00:06:30;5.65;;;3.22;;
60318;SDS011;46163;52.306;5.634;2024-02-21T00:08:56;12.30;;;3.95;;
60318;SDS011;46163;52.306;5.634;2024-02-21T00:11:21;6.10;;;3.03;;
60318;SDS011;46163;52.306;5.634;2024-02-21T00:13:47;6.15;;;2.90;;
60318;SDS011;46163;52.306;5.634;2024-02-21T00:16:12;7.40;;;3.10;;
60318;SDS011;46163;52.306;5.634;2024-02-21T00:18:40;5.35;;;3.17;;
60318;SDS011;46163;52.306;5.634;2024-02-21T00:21:05;7.10;;;3.13;;
60318;SDS011;46163;52.306;5.634;2024-02-21T00:23:31;3.90;;;2.80;;
60318;SDS011;46163;52.306;5.634;2024-02-21T00:25:56;7.53;;;2.97;;
60318;SDS011;46163;52.306;5.634;2024-02-21T00:28:22;7.47;;;3.10;;
60318;SDS011;46163;52.306;5.634;2024-02-21T00:30:47;12.30;;;3.65;;
60318;SDS011;46163;52.306;5.634;2024-02-21T00:33:15;6.60;;;3.22;;
60318;SDS011;46163;52.306;5.634;2024-02-21T00:35:41;9.45;;;3.00;;
60318;SDS011;46163;52.306;5.634;2024-02-21T00:38:06;6.70;;;2.97;;
60318;SDS011;46163;52.306;5.634;2024-02-21T00:40:32;8.90;;;3.05;;
60318;SDS011;46163;52.306;5.634;2024-02-21T00:42:57;7.95;;;3.17;;
60318;SDS011;46163;52.306;5.634;2024-02-21T00:45:23;5.07;;;3.00;;
60318;SDS011;46163;52.306;5.634;2024-02-21T00:47:48;12.80;;;3.30;;
60318;SDS011;46163;52.306;5.634;2024-02-21T00:50:13;11.07;;;3.60;;
60318;SDS011;46163;52.306;5.634;2024-02-21T00:52:39;11.48;;;3.60;;
60318;SDS011;46163;52.306;5.634;2024-02-21T00:55:05;13.48;;;3.40;;
60318;SDS011;46163;52.306;5.634;2024-02-21T00:57:30;8.25;;;3.60;;
60318;SDS011;46163;52.306;5.634;2024-02-21T00:59:56;7.63;;;3.28;;
60318;SDS011;46163;52.306;5.634;2024-02-21T01:02:22;11.57;;;3.30;;
60318;SDS011;46163;52.306;5.634;2024-02-21T01:04:48;13.32;;;3.53;;
60318;SDS011;46163;52.306;5.634;2024-02-21T01:07:13;7.05;;;2.78;;
60318;SDS011;46163;52.306;5.634;2024-02-21T01:09:38;3.90;;;2.50;;
60318;SDS011;46163;52.306;5.634;2024-02-21T01:12:04;4.60;;;2.80;;
60318;SDS011;46163;52.306;5.634;2024-02-21T01:14:29;7.13;;;3.20;;
60318;SDS011;46163;52.306;5.634;2024-02-21T01:16:55;10.63;;;3.85;;
60318;SDS011;46163;52.306;5.634;2024-02-21T01:19:20;3.83;;;2.67;;
60318;SDS011;46163;52.306;5.634;2024-02-21T01:21:45;5.88;;;2.90;;
60318;SDS011;46163;52.306;5.634;2024-02-21T01:24:11;5.57;;;2.83;;
60318;SDS011;46163;52.306;5.634;2024-02-21T01:26:36;8.02;;;3.42;;
60318;SDS011;46163;52.306;5.634;2024-02-21T01:29:01;7.97;;;3.30;;
60318;SDS011;46163;52.306;5.634;2024-02-21T01:31:27;6.30;;;3.10;;
60318;SDS011;46163;52.306;5.634;2024-02-21T01:33:52;12.60;;;3.25;;
60318;SDS011;46163;52.306;5.634;2024-02-21T01:36:17;11.30;;;3.55;;
60318;SDS011;46163;52.306;5.634;2024-02-21T01:38:43;9.00;;;3.40;;
60318;SDS011;46163;52.306;5.634;2024-02-21T01:41:08;8.10;;;3.15;;
60318;SDS011;46163;52.306;5.634;2024-02-21T01:43:34;7.38;;;3.70;;
60318;SDS011;46163;52.306;5.634;2024-02-21T01:46:00;11.07;;;4.25;;
60318;SDS011;46163;52.306;5.634;2024-02-21T01:48:25;7.20;;;3.45;;
60318;SDS011;46163;52.306;5.634;2024-02-21T01:50:51;14.48;;;4.20;;
60318;SDS011;46163;52.306;5.634;2024-02-21T01:53:29;13.43;;;4.25;;
60318;SDS011;46163;52.306;5.634;2024-02-21T01:55:58;10.80;;;4.05;;
60318;SDS011;46163;52.306;5.634;2024-02-21T01:58:24;9.45;;;3.60;;
60318;SDS011;46163;52.306;5.634;2024-02-21T02:00:50;14.05;;;4.43;;
60318;SDS011;46163;52.306;5.634;2024-02-21T02:03:15;8.18;;;3.72;;
60318;SDS011;46163;52.306;5.634;2024-02-21T02:08:10;14.35;;;4.13;;
60318;SDS011;46163;52.306;5.634;2024-02-21T02:10:36;10.30;;;3.70;;
60318;SDS011;46163;52.306;5.634;2024-02-21T02:13:02;11.43;;;3.88;;
60318;SDS011;46163;52.306;5.634;2024-02-21T02:15:37;5.15;;;3.58;;
60318;SDS011;46163;52.306;5.634;2024-02-21T02:18:06;17.90;;;3.75;;
60318;SDS011;46163;52.306;5.634;2024-02-21T02:20:32;13.07;;;4.35;;
60318;SDS011;46163;52.306;5.634;2024-02-21T02:22:58;13.55;;;4.63;;
60318;SDS011;46163;52.306;5.634;2024-02-21T02:25:25;5.95;;;3.80;;
60318;SDS011;46163;52.306;5.634;2024-02-21T02:27:51;12.30;;;4.10;;
60318;SDS011;46163;52.306;5.634;2024-02-21T02:30:17;8.07;;;4.43;;
60318;SDS011;46163;52.306;5.634;2024-02-21T02:32:45;13.18;;;3.92;;
60318;SDS011;46163;52.306;5.634;2024-02-21T02:35:11;7.00;;;4.15;;
60318;SDS011;46163;52.306;5.634;2024-02-21T02:37:37;10.30;;;4.47;;
60318;SDS011;46163;52.306;5.634;2024-02-21T02:40:04;14.02;;;3.78;;
60318;SDS011;46163;52.306;5.634;2024-02-21T02:42:33;13.27;;;4.03;;
60318;SDS011;46163;52.306;5.634;2024-02-21T02:44:58;15.05;;;3.50;;
60318;SDS011;46163;52.306;5.634;2024-02-21T02:47:24;21.40;;;4.20;;
60318;SDS011;46163;52.306;5.634;2024-02-21T02:49:49;10.90;;;3.90;;
60318;SDS011;46163;52.306;5.634;2024-02-21T02:52:16;11.40;;;4.18;;
60318;SDS011;46163;52.306;5.634;2024-02-21T02:54:43;13.30;;;4.07;;
60318;SDS011;46163;52.306;5.634;2024-02-21T02:57:08;13.68;;;3.38;;
60318;SDS011;46163;52.306;5.634;2024-02-21T02:59:35;15.80;;;4.20;;
60318;SDS011;46163;52.306;5.634;2024-02-21T03:02:00;8.85;;;4.05;;
60318;SDS011;46163;52.306;5.634;2024-02-21T03:04:26;10.45;;;4.32;;
60318;SDS011;46163;52.306;5.634;2024-02-21T03:06:51;8.60;;;3.90;;
60318;SDS011;46163;52.306;5.634;2024-02-21T03:09:17;12.82;;;4.25;;
60318;SDS011;46163;52.306;5.634;2024-02-21T03:11:42;11.88;;;4.55;;
60318;SDS011;46163;52.306;5.634;2024-02-21T03:14:09;7.75;;;3.85;;
60318;SDS011;46163;52.306;5.634;2024-02-21T03:16:35;13.85;;;4.00;;
60318;SDS011;46163;52.306;5.634;2024-02-21T03:19:01;7.95;;;3.45;;
60318;SDS011;46163;52.306;5.634;2024-02-21T03:21:26;6.65;;;3.55;;
60318;SDS011;46163;52.306;5.634;2024-02-21T03:23:52;7.35;;;4.05;;
60318;SDS011;46163;52.306;5.634;2024-02-21T03:26:17;13.52;;;4.38;;
60318;SDS011;46163;52.306;5.634;2024-02-21T03:28:43;9.90;;;4.63;;
60318;SDS011;46163;52.306;5.634;2024-02-21T03:31:11;13.00;;;4.22;;
60318;SDS011;46163;52.306;5.634;2024-02-21T03:33:38;14.43;;;4.40;;
60318;SDS011;46163;52.306;5.634;2024-02-21T03:36:05;10.77;;;4.13;;
60318;SDS011;46163;52.306;5.634;2024-02-21T03:38:30;11.45;;;4.10;;
60318;SDS011;46163;52.306;5.634;2024-02-21T03:40:56;9.50;;;3.85;;
60318;SDS011;46163;52.306;5.634;2024-02-21T03:43:21;10.85;;;4.57;;
60318;SDS011;46163;52.306;5.634;2024-02-21T03:45:46;10.35;;;4.13;;
60318;SDS011;46163;52.306;5.634;2024-02-21T03:48:12;14.68;;;4.45;;
60318;SDS011;46163;52.306;5.634;2024-02-21T03:50:37;7.38;;;3.95;;
60318;SDS011;46163;52.306;5.634;2024-02-21T03:53:03;9.68;;;4.10;;
60318;SDS011;46163;52.306;5.634;2024-02-21T03:55:28;12.02;;;4.03;;
60318;SDS011;46163;52.306;5.634;2024-02-21T03:57:54;13.70;;;4.97;;
60318;SDS011;46163;52.306;5.634;2024-02-21T04:00:19;8.75;;;4.13;;
60318;SDS011;46163;52.306;5.634;2024-02-21T04:02:45;8.27;;;4.00;;
60318;SDS011;46163;52.306;5.634;2024-02-21T04:05:10;18.88;;;3.95;;
60318;SDS011;46163;52.306;5.634;2024-02-21T04:07:37;6.63;;;4.25;;
60318;SDS011;46163;52.306;5.634;2024-02-21T04:10:03;5.32;;;3.95;;
60318;SDS011;46163;52.306;5.634;2024-02-21T04:12:29;12.60;;;4.57;;
60318;SDS011;46163;52.306;5.634;2024-02-21T04:14:54;11.40;;;5.25;;
60318;SDS011;46163;52.306;5.634;2024-02-21T04:17:20;8.00;;;4.60;;
60318;SDS011;46163;52.306;5.634;2024-02-21T04:19:45;11.50;;;5.45;;
60318;SDS011;46163;52.306;5.634;2024-02-21T04:22:10;5.93;;;4.63;;
60318;SDS011;46163;52.306;5.634;2024-02-21T04:24:36;9.18;;;4.03;;
60318;SDS011;46163;52.306;5.634;2024-02-21T04:27:01;7.55;;;4.35;;
60318;SDS011;46163;52.306;5.634;2024-02-21T04:29:27;8.18;;;5.00;;
60318;SDS011;46163;52.306;5.634;2024-02-21T04:31:53;7.70;;;4.45;;
60318;SDS011;46163;52.306;5.634;2024-02-21T04:34:19;11.77;;;4.90;;
60318;SDS011;46163;52.306;5.634;2024-02-21T04:36:44;10.85;;;4.93;;
60318;SDS011;46163;52.306;5.634;2024-02-21T04:39:10;7.78;;;4.80;;
60318;SDS011;46163;52.306;5.634;2024-02-21T04:41:36;7.18;;;4.40;;
60318;SDS011;46163;52.306;5.634;2024-02-21T04:44:01;8.13;;;4.65;;
60318;SDS011;46163;52.306;5.634;2024-02-21T04:46:28;10.13;;;4.75;;
60318;SDS011;46163;52.306;5.634;2024-02-21T04:48:54;16.38;;;6.28;;
60318;SDS011;46163;52.306;5.634;2024-02-21T04:51:20;9.00;;;4.70;;
60318;SDS011;46163;52.306;5.634;2024-02-21T04:53:45;10.35;;;4.70;;
60318;SDS011;46163;52.306;5.634;2024-02-21T04:56:11;12.23;;;4.43;;
60318;SDS011;46163;52.306;5.634;2024-02-21T04:58:39;9.60;;;4.55;;
60318;SDS011;46163;52.306;5.634;2024-02-21T05:01:05;18.55;;;5.05;;
60318;SDS011;46163;52.306;5.634;2024-02-21T05:03:30;7.28;;;4.20;;
60318;SDS011;46163;52.306;5.634;2024-02-21T05:05:56;5.68;;;4.03;;
60318;SDS011;46163;52.306;5.634;2024-02-21T05:08:21;9.13;;;3.72;;
60318;SDS011;46163;52.306;5.634;2024-02-21T05:10:46;7.65;;;4.20;;
60318;SDS011;46163;52.306;5.634;2024-02-21T05:13:12;5.65;;;4.57;;
60318;SDS011;46163;52.306;5.634;2024-02-21T05:15:37;13.70;;;5.55;;
60318;SDS011;46163;52.306;5.634;2024-02-21T05:18:03;7.32;;;4.63;;
60318;SDS011;46163;52.306;5.634;2024-02-21T05:20:28;9.55;;;3.85;;
60318;SDS011;46163;52.306;5.634;2024-02-21T05:22:53;8.60;;;4.40;;
60318;SDS011;46163;52.306;5.634;2024-02-21T05:25:19;5.15;;;3.90;;
60318;SDS011;46163;52.306;5.634;2024-02-21T05:27:44;9.77;;;4.60;;
60318;SDS011;46163;52.306;5.634;2024-02-21T05:30:11;7.43;;;4.35;;
60318;SDS011;46163;52.306;5.634;2024-02-21T05:32:37;5.80;;;4.13;;
60318;SDS011;46163;52.306;5.634;2024-02-21T05:35:02;7.53;;;4.07;;
60318;SDS011;46163;52.306;5.634;2024-02-21T05:37:28;9.40;;;4.22;;
60318;SDS011;46163;52.306;5.634;2024-02-21T05:39:53;9.50;;;4.75;;
60318;SDS011;46163;52.306;5.634;2024-02-21T05:42:19;7.15;;;3.80;;
60318;SDS011;46163;52.306;5.634;2024-02-21T05:44:44;5.80;;;4.30;;
60318;SDS011;46163;52.306;5.634;2024-02-21T05:47:10;4.80;;;4.28;;
60318;SDS011;46163;52.306;5.634;2024-02-21T05:49:37;7.82;;;4.00;;
60318;SDS011;46163;52.306;5.634;2024-02-21T05:52:02;6.25;;;3.55;;
60318;SDS011;46163;52.306;5.634;2024-02-21T05:54:27;5.57;;;4.25;;
60318;SDS011;46163;52.306;5.634;2024-02-21T05:56:53;6.18;;;4.38;;
60318;SDS011;46163;52.306;5.634;2024-02-21T05:59:18;9.40;;;5.25;;
60318;SDS011;46163;52.306;5.634;2024-02-21T06:01:44;8.02;;;5.03;;
60318;SDS011;46163;52.306;5.634;2024-02-21T06:04:09;6.28;;;4.28;;
60318;SDS011;46163;52.306;5.634;2024-02-21T06:06:35;12.23;;;4.38;;
60318;SDS011;46163;52.306;5.634;2024-02-21T06:09:00;7.70;;;4.82;;
60318;SDS011;46163;52.306;5.634;2024-02-21T06:11:27;7.73;;;4.50;;
60318;SDS011;46163;52.306;5.634;2024-02-21T06:13:53;7.45;;;4.20;;
60318;SDS011;46163;52.306;5.634;2024-02-21T06:16:19;5.93;;;4.35;;
60318;SDS011;46163;52.306;5.634;2024-02-21T06:18:45;9.18;;;4.60;;
60318;SDS011;46163;52.306;5.634;2024-02-21T06:21:10;12.75;;;5.32;;
60318;SDS011;46163;52.306;5.634;2024-02-21T06:23:37;14.48;;;5.15;;
60318;SDS011;46163;52.306;5.634;2024-02-21T06:26:02;5.88;;;4.38;;
60318;SDS011;46163;52.306;5.634;2024-02-21T06:28:28;5.05;;;4.15;;
60318;SDS011;46163;52.306;5.634;2024-02-21T06:30:53;14.13;;;4.57;;
60318;SDS011;46163;52.306;5.634;2024-02-21T06:33:19;8.88;;;4.55;;
60318;SDS011;46163;52.306;5.634;2024-02-21T06:35:49;5.30;;;3.90;;
60318;SDS011;46163;52.306;5.634;2024-02-21T06:38:17;6.55;;;5.05;;
60318;SDS011;46163;52.306;5.634;2024-02-21T06:40:43;7.43;;;4.65;;
60318;SDS011;46163;52.306;5.634;2024-02-21T06:43:14;6.78;;;4.75;;
60318;SDS011;46163;52.306;5.634;2024-02-21T06:45:39;11.77;;;5.03;;
60318;SDS011;46163;52.306;5.634;2024-02-21T06:48:04;8.63;;;4.15;;
60318;SDS011;46163;52.306;5.634;2024-02-21T06:50:30;9.63;;;5.60;;
60318;SDS011;46163;52.306;5.634;2024-02-21T06:52:55;5.32;;;4.43;;
60318;SDS011;46163;52.306;5.634;2024-02-21T06:55:21;8.30;;;4.70;;
60318;SDS011;46163;52.306;5.634;2024-02-21T06:57:46;6.75;;;5.25;;
60318;SDS011;46163;52.306;5.634;2024-02-21T07:00:13;9.68;;;5.57;;
60318;SDS011;46163;52.306;5.634;2024-02-21T07:02:39;7.28;;;5.05;;
60318;SDS011;46163;52.306;5.634;2024-02-21T07:05:04;6.43;;;4.63;;
60318;SDS011;46163;52.306;5.634;2024-02-21T07:07:30;14.20;;;5.25;;
60318;SDS011;46163;52.306;5.634;2024-02-21T07:09:55;9.35;;;6.13;;
60318;SDS011;46163;52.306;5.634;2024-02-21T07:12:21;8.80;;;5.45;;
60318;SDS011;46163;52.306;5.634;2024-02-21T07:14:46;9.25;;;6.03;;
60318;SDS011;46163;52.306;5.634;2024-02-21T07:17:12;10.48;;;5.78;;
60318;SDS011;46163;52.306;5.634;2024-02-21T07:19:37;10.60;;;6.40;;
60318;SDS011;46163;52.306;5.634;2024-02-21T07:22:03;12.20;;;6.35;;
60318;SDS011;46163;52.306;5.634;2024-02-21T07:24:28;11.40;;;7.20;;
60318;SDS011;46163;52.306;5.634;2024-02-21T07:26:54;10.25;;;7.38;;
60318;SDS011;46163;52.306;5.634;2024-02-21T07:29:21;13.95;;;8.38;;
60318;SDS011;46163;52.306;5.634;2024-02-21T07:31:46;17.95;;;9.00;;
60318;SDS011;46163;52.306;5.634;2024-02-21T07:34:13;11.68;;;8.68;;
60318;SDS011;46163;52.306;5.634;2024-02-21T07:36:40;15.02;;;8.98;;
60318;SDS011;46163;52.306;5.634;2024-02-21T07:39:05;14.20;;;9.75;;
60318;SDS011;46163;52.306;5.634;2024-02-21T07:41:31;13.95;;;8.77;;
60318;SDS011;46163;52.306;5.634;2024-02-21T07:43:58;15.35;;;9.93;;
60318;SDS011;46163;52.306;5.634;2024-02-21T07:46:24;15.48;;;9.48;;
60318;SDS011;46163;52.306;5.634;2024-02-21T07:48:50;14.25;;;9.00;;
60318;SDS011;46163;52.306;5.634;2024-02-21T07:51:15;19.05;;;9.68;;
60318;SDS011;46163;52.306;5.634;2024-02-21T07:53:44;16.20;;;9.45;;
60318;SDS011;46163;52.306;5.634;2024-02-21T07:56:13;15.98;;;8.77;;
60318;SDS011;46163;52.306;5.634;2024-02-21T07:58:40;15.05;;;9.15;;
60318;SDS011;46163;52.306;5.634;2024-02-21T08:01:06;18.88;;;9.00;;
60318;SDS011;46163;52.306;5.634;2024-02-21T08:03:31;16.90;;;9.35;;
60318;SDS011;46163;52.306;5.634;2024-02-21T08:05:57;16.95;;;9.38;;
60318;SDS011;46163;52.306;5.634;2024-02-21T08:08:22;12.02;;;8.80;;
60318;SDS011;46163;52.306;5.634;2024-02-21T08:10:51;18.40;;;7.75;;
60318;SDS011;46163;52.306;5.634;2024-02-21T08:13:16;15.85;;;8.40;;
60318;SDS011;46163;52.306;5.634;2024-02-21T08:15:42;14.05;;;7.85;;
60318;SDS011;46163;52.306;5.634;2024-02-21T08:18:07;15.32;;;8.73;;
60318;SDS011;46163;52.306;5.634;2024-02-21T08:20:33;13.20;;;8.35;;
60318;SDS011;46163;52.306;5.634;2024-02-21T08:23:00;14.75;;;7.80;;
60318;SDS011;46163;52.306;5.634;2024-02-21T08:25:25;18.80;;;8.25;;
60318;SDS011;46163;52.306;5.634;2024-02-21T08:27:51;11.63;;;7.35;;
60318;SDS011;46163;52.306;5.634;2024-02-21T08:30:17;13.10;;;7.97;;
60318;SDS011;46163;52.306;5.634;2024-02-21T08:32:42;11.20;;;7.30;;
60318;SDS011;46163;52.306;5.634;2024-02-21T08:35:08;14.05;;;8.25;;
60318;SDS011;46163;52.306;5.634;2024-02-21T08:37:34;10.63;;;6.65;;
60318;SDS011;46163;52.306;5.634;2024-02-21T08:39:59;13.65;;;7.30;;
60318;SDS011;46163;52.306;5.634;2024-02-21T08:42:29;13.15;;;7.10;;
60318;SDS011;46163;52.306;5.634;2024-02-21T08:44:55;13.95;;;7.00;;
60318;SDS011;46163;52.306;5.634;2024-02-21T08:47:20;15.25;;;6.03;;
60318;SDS011;46163;52.306;5.634;2024-02-21T08:49:45;9.88;;;6.20;;
60318;SDS011;46163;52.306;5.634;2024-02-21T08:52:11;11.65;;;7.20;;
60318;SDS011;46163;52.306;5.634;2024-02-21T08:54:36;9.00;;;6.70;;
60318;SDS011;46163;52.306;5.634;2024-02-21T08:57:01;9.15;;;5.93;;
60318;SDS011;46163;52.306;5.634;2024-02-21T08:59:28;11.48;;;6.40;;
60318;SDS011;46163;52.306;5.634;2024-02-21T09:01:56;8.65;;;5.72;;
60318;SDS011;46163;52.306;5.634;2024-02-21T09:04:22;8.68;;;5.28;;
60318;SDS011;46163;52.306;5.634;2024-02-21T09:06:47;10.73;;;5.93;;
60318;SDS011;46163;52.306;5.634;2024-02-21T09:09:12;10.35;;;6.30;;
60318;SDS011;46163;52.306;5.634;2024-02-21T09:11:38;6.63;;;5.95;;
60318;SDS011;46163;52.306;5.634;2024-02-21T09:14:05;8.70;;;6.07;;
60318;SDS011;46163;52.306;5.634;2024-02-21T09:16:31;7.95;;;6.18;;
60318;SDS011;46163;52.306;5.634;2024-02-21T09:18:57;9.77;;;5.22;;
60318;SDS011;46163;52.306;5.634;2024-02-21T09:21:22;8.93;;;5.65;;
60318;SDS011;46163;52.306;5.634;2024-02-21T09:23:48;11.93;;;7.05;;
60318;SDS011;46163;52.306;5.634;2024-02-21T09:26:13;8.93;;;6.05;;
60318;SDS011;46163;52.306;5.634;2024-02-21T09:28:41;11.82;;;6.35;;
60318;SDS011;46163;52.306;5.634;2024-02-21T09:31:07;8.55;;;6.07;;
60318;SDS011;46163;52.306;5.634;2024-02-21T09:33:32;11.05;;;6.47;;
60318;SDS011;46163;52.306;5.634;2024-02-21T09:35:57;8.25;;;6.22;;
60318;SDS011;46163;52.306;5.634;2024-02-21T09:38:23;11.00;;;6.32;;
60318;SDS011;46163;52.306;5.634;2024-02-21T09:40:53;12.05;;;5.82;;
60318;SDS011;46163;52.306;5.634;2024-02-21T09:43:35;9.35;;;5.85;;
60318;SDS011;46163;52.306;5.634;2024-02-21T09:46:05;8.65;;;5.70;;
60318;SDS011;46163;52.306;5.634;2024-02-21T09:51:17;8.82;;;5.75;;
60318;SDS011;46163;52.306;5.634;2024-02-21T09:53:44;6.90;;;5.15;;
60318;SDS011;46163;52.306;5.634;2024-02-21T09:56:10;7.32;;;5.43;;
60318;SDS011;46163;52.306;5.634;2024-02-21T09:58:37;9.15;;;5.20;;
60318;SDS011;46163;52.306;5.634;2024-02-21T10:01:03;10.38;;;5.38;;
60318;SDS011;46163;52.306;5.634;2024-02-21T10:03:31;7.82;;;5.60;;
60318;SDS011;46163;52.306;5.634;2024-02-21T10:05:58;10.05;;;4.78;;
60318;SDS011;46163;52.306;5.634;2024-02-21T10:08:25;5.20;;;4.70;;
60318;SDS011;46163;52.306;5.634;2024-02-21T10:10:51;6.68;;;4.40;;
60318;SDS011;46163;52.306;5.634;2024-02-21T10:13:28;5.80;;;4.50;;
60318;SDS011;46163;52.306;5.634;2024-02-21T10:16:01;11.95;;;5.18;;
60318;SDS011;46163;52.306;5.634;2024-02-21T10:18:27;6.82;;;4.72;;
60318;SDS011;46163;52.306;5.634;2024-02-21T10:21:05;9.45;;;5.63;;
60318;SDS011;46163;52.306;5.634;2024-02-21T10:26:26;5.13;;;4.28;;
60318;SDS011;46163;52.306;5.634;2024-02-21T10:28:52;8.32;;;4.88;;
60318;SDS011;46163;52.306;5.634;2024-02-21T10:31:25;8.00;;;4.97;;
60318;SDS011;46163;52.306;5.634;2024-02-21T10:33:58;5.30;;;4.22;;
60318;SDS011;46163;52.306;5.634;2024-02-21T10:36:25;6.28;;;4.53;;
60318;SDS011;46163;52.306;5.634;2024-02-21T10:38:51;11.15;;;4.55;;
60318;SDS011;46163;52.306;5.634;2024-02-21T10:41:17;7.78;;;4.88;;
60318;SDS011;46163;52.306;5.634;2024-02-21T10:43:46;6.00;;;4.47;;
60318;SDS011;46163;52.306;5.634;2024-02-21T10:46:18;6.57;;;4.10;;
60318;SDS011;46163;52.306;5.634;2024-02-21T10:48:45;5.38;;;4.07;;
60318;SDS011;46163;52.306;5.634;2024-02-21T10:51:17;5.07;;;4.15;;
60318;SDS011;46163;52.306;5.634;2024-02-21T10:58:46;5.50;;;3.75;;
60318;SDS011;46163;52.306;5.634;2024-02-21T11:01:13;5.05;;;3.55;;
60318;SDS011;46163;52.306;5.634;2024-02-21T11:03:40;3.28;;;2.92;;
60318;SDS011;46163;52.306;5.634;2024-02-21T11:06:09;3.65;;;3.22;;
60318;SDS011;46163;52.306;5.634;2024-02-21T11:08:36;5.82;;;3.63;;
60318;SDS011;46163;52.306;5.634;2024-02-21T11:11:02;3.90;;;3.28;;
60318;SDS011;46163;52.306;5.634;2024-02-21T11:13:36;3.45;;;3.15;;
60318;SDS011;46163;52.306;5.634;2024-02-21T11:16:08;4.53;;;2.95;;
60318;SDS011;46163;52.306;5.634;2024-02-21T11:18:35;4.45;;;3.35;;
60318;SDS011;46163;52.306;5.634;2024-02-21T11:21:01;4.30;;;3.38;;
60318;SDS011;46163;52.306;5.634;2024-02-21T11:23:28;4.95;;;3.40;;
60318;SDS011;46163;52.306;5.634;2024-02-21T11:26:03;5.38;;;3.55;;
60318;SDS011;46163;52.306;5.634;2024-02-21T11:28:32;3.78;;;3.03;;
60318;SDS011;46163;52.306;5.634;2024-02-21T11:31:07;4.88;;;3.55;;
60318;SDS011;46163;52.306;5.634;2024-02-21T11:33:34;6.95;;;3.20;;
60318;SDS011;46163;52.306;5.634;2024-02-21T11:36:01;3.72;;;3.08;;
60318;SDS011;46163;52.306;5.634;2024-02-21T11:38:29;5.00;;;3.35;;
60318;SDS011;46163;52.306;5.634;2024-02-21T11:40:55;5.68;;;3.50;;
60318;SDS011;46163;52.306;5.634;2024-02-21T11:43:20;4.57;;;3.60;;
60318;SDS011;46163;52.306;5.634;2024-02-21T11:45:46;4.15;;;3.50;;
60318;SDS011;46163;52.306;5.634;2024-02-21T11:48:11;4.60;;;3.60;;
60318;SDS011;46163;52.306;5.634;2024-02-21T11:50:37;4.65;;;3.72;;
60318;SDS011;46163;52.306;5.634;2024-02-21T11:53:04;3.85;;;3.15;;
60318;SDS011;46163;52.306;5.634;2024-02-21T11:55:31;4.22;;;3.53;;
60318;SDS011;46163;52.306;5.634;2024-02-21T11:57:56;4.55;;;3.55;;
60318;SDS011;46163;52.306;5.634;2024-02-21T12:00:22;4.00;;;3.28;;
60318;SDS011;46163;52.306;5.634;2024-02-21T12:02:51;6.15;;;3.83;;
60318;SDS011;46163;52.306;5.634;2024-02-21T12:05:18;4.97;;;3.75;;
60318;SDS011;46163;52.306;5.634;2024-02-21T12:07:45;5.00;;;3.65;;
60318;SDS011;46163;52.306;5.634;2024-02-21T12:10:11;4.68;;;3.58;;
60318;SDS011;46163;52.306;5.634;2024-02-21T12:12:38;5.45;;;3.92;;
60318;SDS011;46163;52.306;5.634;2024-02-21T12:15:04;8.93;;;4.03;;
60318;SDS011;46163;52.306;5.634;2024-02-21T12:17:34;7.20;;;4.43;;
60318;SDS011;46163;52.306;5.634;2024-02-21T12:20:04;6.03;;;4.13;;
60318;SDS011;46163;52.306;5.634;2024-02-21T12:22:37;4.13;;;3.58;;
60318;SDS011;46163;52.306;5.634;2024-02-21T12:25:03;6.65;;;4.18;;
60318;SDS011;46163;52.306;5.634;2024-02-21T12:27:29;4.78;;;4.22;;
60318;SDS011;46163;52.306;5.634;2024-02-21T12:29:55;5.82;;;4.00;;
60318;SDS011;46163;52.306;5.634;2024-02-21T12:32:20;5.82;;;4.43;;
60318;SDS011;46163;52.306;5.634;2024-02-21T12:34:46;5.28;;;3.75;;
60318;SDS011;46163;52.306;5.634;2024-02-21T12:37:11;5.88;;;3.67;;
60318;SDS011;46163;52.306;5.634;2024-02-21T12:39:38;6.03;;;3.97;;
60318;SDS011;46163;52.306;5.634;2024-02-21T12:42:03;5.32;;;4.32;;
60318;SDS011;46163;52.306;5.634;2024-02-21T12:44:29;7.25;;;3.88;;
60318;SDS011;46163;52.306;5.634;2024-02-21T12:46:54;5.28;;;3.72;;
60318;SDS011;46163;52.306;5.634;2024-02-21T12:49:20;6.07;;;4.05;;
60318;SDS011;46163;52.306;5.634;2024-02-21T12:51:45;5.55;;;3.58;;
60318;SDS011;46163;52.306;5.634;2024-02-21T12:54:14;6.18;;;4.07;;
60318;SDS011;46163;52.306;5.634;2024-02-21T12:56:39;4.00;;;3.15;;
60318;SDS011;46163;52.306;5.634;2024-02-21T12:59:05;4.35;;;3.50;;
60318;SDS011;46163;52.306;5.634;2024-02-21T13:01:35;6.38;;;4.32;;
60318;SDS011;46163;52.306;5.634;2024-02-21T13:04:16;4.78;;;3.72;;
60318;SDS011;46163;52.306;5.634;2024-02-21T13:06:41;4.93;;;3.65;;
60318;SDS011;46163;52.306;5.634;2024-02-21T13:09:07;8.50;;;3.70;;
60318;SDS011;46163;52.306;5.634;2024-02-21T13:11:37;3.45;;;3.15;;
60318;SDS011;46163;52.306;5.634;2024-02-21T13:14:03;6.00;;;4.00;;
60318;SDS011;46163;52.306;5.634;2024-02-21T13:16:28;5.60;;;3.45;;
60318;SDS011;46163;52.306;5.634;2024-02-21T13:19:04;6.22;;;3.70;;
60318;SDS011;46163;52.306;5.634;2024-02-21T13:21:29;4.75;;;3.33;;
60318;SDS011;46163;52.306;5.634;2024-02-21T13:23:55;7.82;;;3.58;;
60318;SDS011;46163;52.306;5.634;2024-02-21T13:26:22;9.85;;;3.90;;
60318;SDS011;46163;52.306;5.634;2024-02-21T13:28:48;8.00;;;3.85;;
60318;SDS011;46163;52.306;5.634;2024-02-21T13:31:14;5.18;;;3.40;;
60318;SDS011;46163;52.306;5.634;2024-02-21T13:33:39;6.50;;;3.13;;
60318;SDS011;46163;52.306;5.634;2024-02-21T13:36:05;4.15;;;2.92;;
60318;SDS011;46163;52.306;5.634;2024-02-21T13:38:31;7.63;;;3.35;;
60318;SDS011;46163;52.306;5.634;2024-02-21T13:40:56;4.28;;;3.45;;
60318;SDS011;46163;52.306;5.634;2024-02-21T13:43:22;4.35;;;3.28;;
60318;SDS011;46163;52.306;5.634;2024-02-21T13:45:57;4.05;;;3.10;;
60318;SDS011;46163;52.306;5.634;2024-02-21T13:48:24;4.60;;;3.13;;
60318;SDS011;46163;52.306;5.634;2024-02-21T13:50:50;4.95;;;3.15;;
60318;SDS011;46163;52.306;5.634;2024-02-21T13:53:15;6.72;;;3.95;;
60318;SDS011;46163;52.306;5.634;2024-02-21T13:55:44;4.05;;;3.28;;
60318;SDS011;46163;52.306;5.634;2024-02-21T13:58:10;8.02;;;3.38;;
60318;SDS011;46163;52.306;5.634;2024-02-21T14:00:35;4.93;;;2.80;;
60318;SDS011;46163;52.306;5.634;2024-02-21T14:03:01;4.65;;;3.05;;
60318;SDS011;46163;52.306;5.634;2024-02-21T14:05:26;5.63;;;3.35;;
60318;SDS011;46163;52.306;5.634;2024-02-21T14:07:52;5.30;;;3.58;;
60318;SDS011;46163;52.306;5.634;2024-02-21T14:10:19;6.63;;;3.42;;
60318;SDS011;46163;52.306;5.634;2024-02-21T14:12:50;4.15;;;3.03;;
60318;SDS011;46163;52.306;5.634;2024-02-21T14:15:15;4.10;;;2.85;;
60318;SDS011;46163;52.306;5.634;2024-02-21T14:20:09;4.65;;;3.17;;
60318;SDS011;46163;52.306;5.634;2024-02-21T14:22:35;4.38;;;3.20;;
60318;SDS011;46163;52.306;5.634;2024-02-21T14:25:02;4.03;;;2.88;;
60318;SDS011;46163;52.306;5.634;2024-02-21T14:27:30;5.90;;;3.47;;
60318;SDS011;46163;52.306;5.634;2024-02-21T14:29:56;8.35;;;2.80;;
60318;SDS011;46163;52.306;5.634;2024-02-21T14:32:22;6.00;;;3.13;;
60318;SDS011;46163;52.306;5.634;2024-02-21T14:34:47;5.65;;;3.10;;
60318;SDS011;46163;52.306;5.634;2024-02-21T14:37:14;6.00;;;3.42;;
60318;SDS011;46163;52.306;5.634;2024-02-21T14:39:39;6.40;;;3.25;;
60318;SDS011;46163;52.306;5.634;2024-02-21T14:42:05;4.35;;;2.97;;
60318;SDS011;46163;52.306;5.634;2024-02-21T14:44:31;5.68;;;3.33;;
60318;SDS011;46163;52.306;5.634;2024-02-21T14:46:56;10.35;;;3.33;;
60318;SDS011;46163;52.306;5.634;2024-02-21T14:49:22;4.47;;;3.28;;
60318;SDS011;46163;52.306;5.634;2024-02-21T14:51:47;5.20;;;2.83;;
60318;SDS011;46163;52.306;5.634;2024-02-21T14:54:12;5.20;;;3.00;;